sensor_id;sensor_type;location;lat;lon;timestamp;temperature;humidity
19941;DHT22;10132;50.864;5.176;2023-05-07T00:00:11;14.90;99.90
19941;DHT22;10132;50.864;5.176;2023-05-07T00:02:16;15.00;99.90
19941;DHT22;10132;50.864;5.176;2023-05-07T00:04:19;14.90;99.90
19941;DHT22;10132;50.864;5.176;2023-05-07T00:06:23;14.80;99.90
19941;DHT22;10132;50.864;5.176;2023-05-07T00:08:27;14.80;99.90
19941;DHT22;10132;50.864;5.176;2023-05-07T00:10:29;14.80;99.90
19941;DHT22;10132;50.864;5.176;2023-05-07T00:12:32;14.90;99.90
19941;DHT22;10132;50.864;5.176;2023-05-07T00:14:35;15.00;99.90
19941;DHT22;10132;50.864;5.176;2023-05-07T00:16:37;15.10;99.90
19941;DHT22;10132;50.864;5.176;2023-05-07T00:18:39;15.20;99.90
19941;DHT22;10132;50.864;5.176;2023-05-07T00:20:41;15.30;99.90
19941;DHT22;10132;50.864;5.176;2023-05-07T00:22:45;15.30;99.90
19941;DHT22;10132;50.864;5.176;2023-05-07T00:24:47;15.40;99.90
19941;DHT22;10132;50.864;5.176;2023-05-07T00:26:50;15.30;99.90
19941;DHT22;10132;50.864;5.176;2023-05-07T00:28:53;15.30;99.90
19941;DHT22;10132;50.864;5.176;2023-05-07T00:30:55;15.30;99.90
19941;DHT22;10132;50.864;5.176;2023-05-07T00:32:58;15.20;99.90
19941;DHT22;10132;50.864;5.176;2023-05-07T00:35:00;15.20;99.90
19941;DHT22;10132;50.864;5.176;2023-05-07T00:37:02;15.20;99.90
19941;DHT22;10132;50.864;5.176;2023-05-07T00:39:07;15.20;99.90
19941;DHT22;10132;50.864;5.176;2023-05-07T00:41:09;15.20;99.90
19941;DHT22;10132;50.864;5.176;2023-05-07T00:43:11;15.20;99.90
19941;DHT22;10132;50.864;5.176;2023-05-07T00:45:14;15.30;99.90
19941;DHT22;10132;50.864;5.176;2023-05-07T00:47:16;15.30;99.90
19941;DHT22;10132;50.864;5.176;2023-05-07T00:49:19;15.30;99.90
19941;DHT22;10132;50.864;5.176;2023-05-07T00:51:23;15.30;99.90
19941;DHT22;10132;50.864;5.176;2023-05-07T00:53:28;15.30;99.90
19941;DHT22;10132;50.864;5.176;2023-05-07T00:55:33;15.20;99.90
19941;DHT22;10132;50.864;5.176;2023-05-07T00:57:37;15.30;99.90
19941;DHT22;10132;50.864;5.176;2023-05-07T00:59:40;15.40;99.90
19941;DHT22;10132;50.864;5.176;2023-05-07T01:01:42;15.50;99.90
19941;DHT22;10132;50.864;5.176;2023-05-07T01:03:44;15.40;99.90
19941;DHT22;10132;50.864;5.176;2023-05-07T01:05:48;15.50;99.90
19941;DHT22;10132;50.864;5.176;2023-05-07T01:07:52;15.40;99.90
19941;DHT22;10132;50.864;5.176;2023-05-07T01:09:55;15.30;99.90
19941;DHT22;10132;50.864;5.176;2023-05-07T01:11:59;15.30;99.90
19941;DHT22;10132;50.864;5.176;2023-05-07T01:14:01;15.20;99.90
19941;DHT22;10132;50.864;5.176;2023-05-07T01:16:05;15.20;99.90
19941;DHT22;10132;50.864;5.176;2023-05-07T01:18:07;15.20;99.90
19941;DHT22;10132;50.864;5.176;2023-05-07T01:20:10;15.20;99.90
19941;DHT22;10132;50.864;5.176;2023-05-07T01:22:15;15.20;99.90
19941;DHT22;10132;50.864;5.176;2023-05-07T01:24:20;15.10;99.90
19941;DHT22;10132;50.864;5.176;2023-05-07T01:26:22;14.90;99.90
19941;DHT22;10132;50.864;5.176;2023-05-07T01:28:27;15.00;99.90
19941;DHT22;10132;50.864;5.176;2023-05-07T01:30:29;15.00;99.90
19941;DHT22;10132;50.864;5.176;2023-05-07T01:32:35;15.00;99.90
19941;DHT22;10132;50.864;5.176;2023-05-07T01:34:39;15.00;99.90
19941;DHT22;10132;50.864;5.176;2023-05-07T01:36:43;15.00;99.90
19941;DHT22;10132;50.864;5.176;2023-05-07T01:38:46;15.00;99.90
19941;DHT22;10132;50.864;5.176;2023-05-07T01:40:50;15.10;99.90
19941;DHT22;10132;50.864;5.176;2023-05-07T01:42:53;15.10;99.90
19941;DHT22;10132;50.864;5.176;2023-05-07T01:44:56;15.10;99.90
19941;DHT22;10132;50.864;5.176;2023-05-07T01:46:58;15.10;99.90
19941;DHT22;10132;50.864;5.176;2023-05-07T01:49:04;15.00;99.90
19941;DHT22;10132;50.864;5.176;2023-05-07T01:51:08;15.00;99.90
19941;DHT22;10132;50.864;5.176;2023-05-07T01:53:10;14.90;99.90
19941;DHT22;10132;50.864;5.176;2023-05-07T01:55:13;14.70;99.90
19941;DHT22;10132;50.864;5.176;2023-05-07T01:57:15;14.50;99.90
19941;DHT22;10132;50.864;5.176;2023-05-07T01:59:17;14.40;99.90
19941;DHT22;10132;50.864;5.176;2023-05-07T02:01:20;14.40;99.90
19941;DHT22;10132;50.864;5.176;2023-05-07T02:03:22;14.40;99.90
19941;DHT22;10132;50.864;5.176;2023-05-07T02:05:25;14.40;99.90
19941;DHT22;10132;50.864;5.176;2023-05-07T02:07:27;14.30;99.90
19941;DHT22;10132;50.864;5.176;2023-05-07T02:09:29;14.40;99.90
19941;DHT22;10132;50.864;5.176;2023-05-07T02:11:31;14.40;99.90
19941;DHT22;10132;50.864;5.176;2023-05-07T02:13:35;14.50;99.90
19941;DHT22;10132;50.864;5.176;2023-05-07T02:15:37;14.50;99.90
19941;DHT22;10132;50.864;5.176;2023-05-07T02:19:56;14.50;99.90
19941;DHT22;10132;50.864;5.176;2023-05-07T02:21:59;14.60;99.90
19941;DHT22;10132;50.864;5.176;2023-05-07T02:24:01;14.70;99.90
19941;DHT22;10132;50.864;5.176;2023-05-07T02:26:04;14.80;99.90
19941;DHT22;10132;50.864;5.176;2023-05-07T02:28:06;14.80;99.90
19941;DHT22;10132;50.864;5.176;2023-05-07T02:30:11;14.80;99.90
19941;DHT22;10132;50.864;5.176;2023-05-07T02:32:13;14.70;99.90
19941;DHT22;10132;50.864;5.176;2023-05-07T02:34:15;14.70;99.90
19941;DHT22;10132;50.864;5.176;2023-05-07T02:36:17;14.60;99.90
19941;DHT22;10132;50.864;5.176;2023-05-07T02:38:20;14.70;99.90
19941;DHT22;10132;50.864;5.176;2023-05-07T02:40:22;14.80;99.90
19941;DHT22;10132;50.864;5.176;2023-05-07T02:42:24;14.90;99.90
19941;DHT22;10132;50.864;5.176;2023-05-07T02:44:26;15.00;99.90
19941;DHT22;10132;50.864;5.176;2023-05-07T02:46:33;15.00;99.90
19941;DHT22;10132;50.864;5.176;2023-05-07T02:48:36;14.90;99.90
19941;DHT22;10132;50.864;5.176;2023-05-07T02:50:38;15.00;99.90
19941;DHT22;10132;50.864;5.176;2023-05-07T02:52:41;15.00;99.90
19941;DHT22;10132;50.864;5.176;2023-05-07T02:54:43;15.00;99.90
19941;DHT22;10132;50.864;5.176;2023-05-07T02:56:46;15.00;99.90
19941;DHT22;10132;50.864;5.176;2023-05-07T02:58:49;14.90;99.90
19941;DHT22;10132;50.864;5.176;2023-05-07T03:00:52;15.00;99.90
19941;DHT22;10132;50.864;5.176;2023-05-07T03:02:56;15.00;99.90
19941;DHT22;10132;50.864;5.176;2023-05-07T03:04:58;15.00;99.90
19941;DHT22;10132;50.864;5.176;2023-05-07T03:07:01;15.10;99.90
19941;DHT22;10132;50.864;5.176;2023-05-07T03:09:03;15.10;99.90
19941;DHT22;10132;50.864;5.176;2023-05-07T03:11:05;15.10;99.90
19941;DHT22;10132;50.864;5.176;2023-05-07T03:13:07;15.10;99.90
19941;DHT22;10132;50.864;5.176;2023-05-07T03:15:10;15.00;99.90
19941;DHT22;10132;50.864;5.176;2023-05-07T03:17:13;15.00;99.90
19941;DHT22;10132;50.864;5.176;2023-05-07T03:19:20;15.00;99.90
19941;DHT22;10132;50.864;5.176;2023-05-07T03:21:22;14.90;99.90
19941;DHT22;10132;50.864;5.176;2023-05-07T03:23:24;14.90;99.90
19941;DHT22;10132;50.864;5.176;2023-05-07T03:25:27;14.90;99.90
19941;DHT22;10132;50.864;5.176;2023-05-07T03:27:30;14.80;99.90
19941;DHT22;10132;50.864;5.176;2023-05-07T03:29:32;14.70;99.90
19941;DHT22;10132;50.864;5.176;2023-05-07T03:31:35;14.70;99.90
19941;DHT22;10132;50.864;5.176;2023-05-07T03:33:51;14.70;99.90
19941;DHT22;10132;50.864;5.176;2023-05-07T03:35:55;14.70;99.90
19941;DHT22;10132;50.864;5.176;2023-05-07T03:37:57;14.60;99.90
19941;DHT22;10132;50.864;5.176;2023-05-07T03:40:00;14.60;99.90
19941;DHT22;10132;50.864;5.176;2023-05-07T03:42:03;14.50;99.90
19941;DHT22;10132;50.864;5.176;2023-05-07T03:44:05;14.60;99.90
19941;DHT22;10132;50.864;5.176;2023-05-07T03:46:09;14.60;99.90
19941;DHT22;10132;50.864;5.176;2023-05-07T03:48:11;14.50;99.90
19941;DHT22;10132;50.864;5.176;2023-05-07T03:50:13;14.50;99.90
19941;DHT22;10132;50.864;5.176;2023-05-07T03:52:17;14.50;99.90
19941;DHT22;10132;50.864;5.176;2023-05-07T03:54:22;14.50;99.90
19941;DHT22;10132;50.864;5.176;2023-05-07T03:56:25;14.50;99.90
19941;DHT22;10132;50.864;5.176;2023-05-07T03:58:28;14.60;99.90
19941;DHT22;10132;50.864;5.176;2023-05-07T04:00:30;14.70;99.90
19941;DHT22;10132;50.864;5.176;2023-05-07T04:02:34;14.80;99.90
19941;DHT22;10132;50.864;5.176;2023-05-07T04:04:37;14.80;99.90
19941;DHT22;10132;50.864;5.176;2023-05-07T04:06:40;14.80;99.90
19941;DHT22;10132;50.864;5.176;2023-05-07T04:08:43;14.80;99.90
19941;DHT22;10132;50.864;5.176;2023-05-07T04:10:46;14.90;99.90
19941;DHT22;10132;50.864;5.176;2023-05-07T04:12:48;14.90;99.90
19941;DHT22;10132;50.864;5.176;2023-05-07T04:14:50;15.00;99.90
19941;DHT22;10132;50.864;5.176;2023-05-07T04:16:53;14.90;99.90
19941;DHT22;10132;50.864;5.176;2023-05-07T04:18:55;14.80;99.90
19941;DHT22;10132;50.864;5.176;2023-05-07T04:20:58;14.90;99.90
19941;DHT22;10132;50.864;5.176;2023-05-07T04:23:01;14.90;99.90
19941;DHT22;10132;50.864;5.176;2023-05-07T04:25:05;14.80;99.90
19941;DHT22;10132;50.864;5.176;2023-05-07T04:27:08;14.80;99.90
19941;DHT22;10132;50.864;5.176;2023-05-07T04:29:10;14.80;99.90
19941;DHT22;10132;50.864;5.176;2023-05-07T04:31:13;14.80;99.90
19941;DHT22;10132;50.864;5.176;2023-05-07T04:33:15;14.90;99.90
19941;DHT22;10132;50.864;5.176;2023-05-07T04:35:18;15.00;99.90
19941;DHT22;10132;50.864;5.176;2023-05-07T04:37:21;15.00;99.90
19941;DHT22;10132;50.864;5.176;2023-05-07T04:39:23;15.00;99.90
19941;DHT22;10132;50.864;5.176;2023-05-07T04:41:27;14.90;99.90
19941;DHT22;10132;50.864;5.176;2023-05-07T04:43:31;14.90;99.90
19941;DHT22;10132;50.864;5.176;2023-05-07T04:45:33;14.90;99.90
19941;DHT22;10132;50.864;5.176;2023-05-07T04:47:36;14.90;99.90
19941;DHT22;10132;50.864;5.176;2023-05-07T04:49:38;14.90;99.90
19941;DHT22;10132;50.864;5.176;2023-05-07T04:51:40;14.90;99.90
19941;DHT22;10132;50.864;5.176;2023-05-07T04:53:43;14.90;99.90
19941;DHT22;10132;50.864;5.176;2023-05-07T04:55:45;14.90;99.90
19941;DHT22;10132;50.864;5.176;2023-05-07T04:57:49;14.80;99.90
19941;DHT22;10132;50.864;5.176;2023-05-07T04:59:51;14.80;99.90
19941;DHT22;10132;50.864;5.176;2023-05-07T05:01:54;14.70;99.90
19941;DHT22;10132;50.864;5.176;2023-05-07T05:03:56;14.80;99.90
19941;DHT22;10132;50.864;5.176;2023-05-07T05:05:58;14.80;99.90
19941;DHT22;10132;50.864;5.176;2023-05-07T05:08:01;14.90;99.90
19941;DHT22;10132;50.864;5.176;2023-05-07T05:10:05;15.00;99.90
19941;DHT22;10132;50.864;5.176;2023-05-07T05:12:08;15.10;99.90
19941;DHT22;10132;50.864;5.176;2023-05-07T05:14:11;15.10;99.90
19941;DHT22;10132;50.864;5.176;2023-05-07T05:16:13;15.10;99.90
19941;DHT22;10132;50.864;5.176;2023-05-07T05:18:16;15.20;99.90
19941;DHT22;10132;50.864;5.176;2023-05-07T05:20:18;15.20;99.90
19941;DHT22;10132;50.864;5.176;2023-05-07T05:22:20;15.20;99.90
19941;DHT22;10132;50.864;5.176;2023-05-07T05:24:23;15.20;99.90
19941;DHT22;10132;50.864;5.176;2023-05-07T05:26:25;15.30;99.90
19941;DHT22;10132;50.864;5.176;2023-05-07T05:28:27;15.30;99.90
19941;DHT22;10132;50.864;5.176;2023-05-07T05:30:31;15.40;99.90
19941;DHT22;10132;50.864;5.176;2023-05-07T05:32:33;15.50;99.90
19941;DHT22;10132;50.864;5.176;2023-05-07T05:34:35;15.60;99.90
19941;DHT22;10132;50.864;5.176;2023-05-07T05:36:39;15.70;99.90
19941;DHT22;10132;50.864;5.176;2023-05-07T05:38:41;15.80;99.90
19941;DHT22;10132;50.864;5.176;2023-05-07T05:40:44;16.00;99.90
19941;DHT22;10132;50.864;5.176;2023-05-07T05:42:46;16.10;99.90
19941;DHT22;10132;50.864;5.176;2023-05-07T05:44:49;16.30;99.90
19941;DHT22;10132;50.864;5.176;2023-05-07T05:46:52;16.40;99.90
19941;DHT22;10132;50.864;5.176;2023-05-07T05:48:55;16.50;99.90
19941;DHT22;10132;50.864;5.176;2023-05-07T05:50:58;16.60;99.90
19941;DHT22;10132;50.864;5.176;2023-05-07T05:53:00;16.70;99.90
19941;DHT22;10132;50.864;5.176;2023-05-07T05:55:02;16.80;99.90
19941;DHT22;10132;50.864;5.176;2023-05-07T05:57:05;16.80;99.90
19941;DHT22;10132;50.864;5.176;2023-05-07T05:59:07;16.90;99.90
19941;DHT22;10132;50.864;5.176;2023-05-07T06:01:10;16.90;99.90
19941;DHT22;10132;50.864;5.176;2023-05-07T06:03:14;17.00;99.90
19941;DHT22;10132;50.864;5.176;2023-05-07T06:05:16;17.10;99.90
19941;DHT22;10132;50.864;5.176;2023-05-07T06:07:19;17.20;99.90
19941;DHT22;10132;50.864;5.176;2023-05-07T06:09:21;17.20;99.90
19941;DHT22;10132;50.864;5.176;2023-05-07T06:11:23;17.10;99.90
19941;DHT22;10132;50.864;5.176;2023-05-07T06:13:26;17.00;99.90
19941;DHT22;10132;50.864;5.176;2023-05-07T06:15:28;17.00;99.90
19941;DHT22;10132;50.864;5.176;2023-05-07T06:17:30;17.00;99.90
19941;DHT22;10132;50.864;5.176;2023-05-07T06:19:34;17.00;99.90
19941;DHT22;10132;50.864;5.176;2023-05-07T06:21:36;16.90;99.90
19941;DHT22;10132;50.864;5.176;2023-05-07T06:23:38;16.90;99.90
19941;DHT22;10132;50.864;5.176;2023-05-07T06:25:41;17.00;99.90
19941;DHT22;10132;50.864;5.176;2023-05-07T06:27:44;17.00;99.90
19941;DHT22;10132;50.864;5.176;2023-05-07T06:29:48;17.00;99.90
19941;DHT22;10132;50.864;5.176;2023-05-07T06:31:50;17.00;99.90
19941;DHT22;10132;50.864;5.176;2023-05-07T06:33:52;17.00;99.90
19941;DHT22;10132;50.864;5.176;2023-05-07T06:35:57;17.10;99.90
19941;DHT22;10132;50.864;5.176;2023-05-07T06:38:00;17.10;99.90
19941;DHT22;10132;50.864;5.176;2023-05-07T06:40:04;17.10;99.90
19941;DHT22;10132;50.864;5.176;2023-05-07T06:42:06;17.10;99.90
19941;DHT22;10132;50.864;5.176;2023-05-07T06:44:09;17.20;99.90
19941;DHT22;10132;50.864;5.176;2023-05-07T06:46:11;17.10;99.90
19941;DHT22;10132;50.864;5.176;2023-05-07T06:48:14;17.30;99.90
19941;DHT22;10132;50.864;5.176;2023-05-07T06:50:16;17.40;99.90
19941;DHT22;10132;50.864;5.176;2023-05-07T06:52:20;17.50;99.90
19941;DHT22;10132;50.864;5.176;2023-05-07T06:54:22;17.60;99.90
19941;DHT22;10132;50.864;5.176;2023-05-07T06:56:25;17.70;99.90
19941;DHT22;10132;50.864;5.176;2023-05-07T06:58:27;17.80;99.90
19941;DHT22;10132;50.864;5.176;2023-05-07T07:00:29;18.00;99.90
19941;DHT22;10132;50.864;5.176;2023-05-07T07:02:32;18.10;99.90
19941;DHT22;10132;50.864;5.176;2023-05-07T07:04:34;18.00;99.90
19941;DHT22;10132;50.864;5.176;2023-05-07T07:06:36;18.20;99.90
19941;DHT22;10132;50.864;5.176;2023-05-07T07:08:39;18.30;99.90
19941;DHT22;10132;50.864;5.176;2023-05-07T07:10:42;18.50;99.90
19941;DHT22;10132;50.864;5.176;2023-05-07T07:12:44;18.70;99.90
19941;DHT22;10132;50.864;5.176;2023-05-07T07:14:46;18.90;99.90
19941;DHT22;10132;50.864;5.176;2023-05-07T07:16:48;19.00;99.90
19941;DHT22;10132;50.864;5.176;2023-05-07T07:18:51;19.00;99.90
19941;DHT22;10132;50.864;5.176;2023-05-07T07:20:54;19.00;99.90
19941;DHT22;10132;50.864;5.176;2023-05-07T07:22:56;18.70;99.90
19941;DHT22;10132;50.864;5.176;2023-05-07T07:25:00;18.70;99.90
19941;DHT22;10132;50.864;5.176;2023-05-07T07:27:03;18.40;99.90
19941;DHT22;10132;50.864;5.176;2023-05-07T07:29:05;18.50;99.90
19941;DHT22;10132;50.864;5.176;2023-05-07T07:31:10;18.40;99.90
19941;DHT22;10132;50.864;5.176;2023-05-07T07:33:14;18.20;99.90
19941;DHT22;10132;50.864;5.176;2023-05-07T07:35:16;18.10;99.90
19941;DHT22;10132;50.864;5.176;2023-05-07T07:37:18;18.10;99.90
19941;DHT22;10132;50.864;5.176;2023-05-07T07:39:20;18.30;99.90
19941;DHT22;10132;50.864;5.176;2023-05-07T07:41:24;18.50;99.90
19941;DHT22;10132;50.864;5.176;2023-05-07T07:43:26;18.50;99.90
19941;DHT22;10132;50.864;5.176;2023-05-07T07:45:29;18.50;99.90
19941;DHT22;10132;50.864;5.176;2023-05-07T07:47:31;18.40;99.90
19941;DHT22;10132;50.864;5.176;2023-05-07T07:49:33;18.50;99.90
19941;DHT22;10132;50.864;5.176;2023-05-07T07:51:36;18.70;99.90
19941;DHT22;10132;50.864;5.176;2023-05-07T07:53:38;18.70;99.90
19941;DHT22;10132;50.864;5.176;2023-05-07T07:55:41;18.90;99.90
19941;DHT22;10132;50.864;5.176;2023-05-07T07:57:47;19.10;99.90
19941;DHT22;10132;50.864;5.176;2023-05-07T07:59:49;19.20;99.90
19941;DHT22;10132;50.864;5.176;2023-05-07T08:01:51;19.20;99.90
19941;DHT22;10132;50.864;5.176;2023-05-07T08:03:56;19.00;99.90
19941;DHT22;10132;50.864;5.176;2023-05-07T08:05:59;18.90;99.90
19941;DHT22;10132;50.864;5.176;2023-05-07T08:08:02;18.90;99.90
19941;DHT22;10132;50.864;5.176;2023-05-07T08:10:04;18.90;99.90
19941;DHT22;10132;50.864;5.176;2023-05-07T08:12:07;18.80;99.90
19941;DHT22;10132;50.864;5.176;2023-05-07T08:14:11;18.70;99.90
19941;DHT22;10132;50.864;5.176;2023-05-07T08:16:13;18.80;99.90
19941;DHT22;10132;50.864;5.176;2023-05-07T08:18:16;18.60;99.90
19941;DHT22;10132;50.864;5.176;2023-05-07T08:20:18;18.70;99.90
19941;DHT22;10132;50.864;5.176;2023-05-07T08:22:20;18.70;99.90
19941;DHT22;10132;50.864;5.176;2023-05-07T08:24:23;18.80;99.90
19941;DHT22;10132;50.864;5.176;2023-05-07T08:26:25;18.80;99.90
19941;DHT22;10132;50.864;5.176;2023-05-07T08:28:27;19.10;99.90
19941;DHT22;10132;50.864;5.176;2023-05-07T08:30:31;19.00;99.90
19941;DHT22;10132;50.864;5.176;2023-05-07T08:32:33;19.10;99.90
19941;DHT22;10132;50.864;5.176;2023-05-07T08:34:49;19.30;99.90
19941;DHT22;10132;50.864;5.176;2023-05-07T08:36:51;19.50;99.90
19941;DHT22;10132;50.864;5.176;2023-05-07T08:38:53;19.50;99.90
19941;DHT22;10132;50.864;5.176;2023-05-07T08:40:56;19.50;99.90
19941;DHT22;10132;50.864;5.176;2023-05-07T08:42:59;19.70;99.90
19941;DHT22;10132;50.864;5.176;2023-05-07T08:45:03;19.80;99.90
19941;DHT22;10132;50.864;5.176;2023-05-07T08:47:09;20.00;99.90
19941;DHT22;10132;50.864;5.176;2023-05-07T08:49:11;20.00;99.90
19941;DHT22;10132;50.864;5.176;2023-05-07T08:51:15;19.90;99.90
19941;DHT22;10132;50.864;5.176;2023-05-07T08:53:18;19.90;99.90
19941;DHT22;10132;50.864;5.176;2023-05-07T08:55:21;20.00;99.90
19941;DHT22;10132;50.864;5.176;2023-05-07T08:57:23;20.00;99.90
19941;DHT22;10132;50.864;5.176;2023-05-07T08:59:25;19.90;99.90
19941;DHT22;10132;50.864;5.176;2023-05-07T09:01:28;19.80;99.90
19941;DHT22;10132;50.864;5.176;2023-05-07T09:03:33;19.90;99.90
19941;DHT22;10132;50.864;5.176;2023-05-07T09:05:35;19.80;99.90
19941;DHT22;10132;50.864;5.176;2023-05-07T09:07:39;19.90;99.90
19941;DHT22;10132;50.864;5.176;2023-05-07T09:09:42;20.00;99.90
19941;DHT22;10132;50.864;5.176;2023-05-07T09:11:45;20.20;99.90
19941;DHT22;10132;50.864;5.176;2023-05-07T09:13:47;20.30;99.90
19941;DHT22;10132;50.864;5.176;2023-05-07T09:15:50;20.10;99.90
19941;DHT22;10132;50.864;5.176;2023-05-07T09:17:52;20.10;99.90
19941;DHT22;10132;50.864;5.176;2023-05-07T09:20:02;20.10;99.90
19941;DHT22;10132;50.864;5.176;2023-05-07T09:22:05;20.10;99.90
19941;DHT22;10132;50.864;5.176;2023-05-07T09:24:08;19.90;99.90
19941;DHT22;10132;50.864;5.176;2023-05-07T09:26:11;19.70;99.90
19941;DHT22;10132;50.864;5.176;2023-05-07T09:28:13;19.50;99.90
19941;DHT22;10132;50.864;5.176;2023-05-07T09:30:15;19.40;99.90
19941;DHT22;10132;50.864;5.176;2023-05-07T09:32:18;19.30;99.90
19941;DHT22;10132;50.864;5.176;2023-05-07T09:34:20;19.20;99.90
19941;DHT22;10132;50.864;5.176;2023-05-07T09:36:24;19.40;99.90
19941;DHT22;10132;50.864;5.176;2023-05-07T09:38:26;19.20;99.90
19941;DHT22;10132;50.864;5.176;2023-05-07T09:40:30;19.20;99.90
19941;DHT22;10132;50.864;5.176;2023-05-07T09:42:32;19.40;99.90
19941;DHT22;10132;50.864;5.176;2023-05-07T09:44:35;19.30;99.90
19941;DHT22;10132;50.864;5.176;2023-05-07T09:46:39;19.40;99.90
19941;DHT22;10132;50.864;5.176;2023-05-07T09:48:44;19.40;99.90
19941;DHT22;10132;50.864;5.176;2023-05-07T09:50:49;19.40;99.90
19941;DHT22;10132;50.864;5.176;2023-05-07T09:52:54;19.40;99.90
19941;DHT22;10132;50.864;5.176;2023-05-07T09:54:58;19.20;99.90
19941;DHT22;10132;50.864;5.176;2023-05-07T09:57:02;19.30;99.90
19941;DHT22;10132;50.864;5.176;2023-05-07T09:59:06;19.20;99.90
19941;DHT22;10132;50.864;5.176;2023-05-07T10:01:10;19.20;99.90
19941;DHT22;10132;50.864;5.176;2023-05-07T10:03:13;19.40;99.90
19941;DHT22;10132;50.864;5.176;2023-05-07T10:05:16;19.50;99.90
19941;DHT22;10132;50.864;5.176;2023-05-07T10:07:21;19.60;99.90
19941;DHT22;10132;50.864;5.176;2023-05-07T10:09:27;19.40;99.90
19941;DHT22;10132;50.864;5.176;2023-05-07T10:11:29;19.20;99.90
19941;DHT22;10132;50.864;5.176;2023-05-07T10:13:33;19.10;99.90
19941;DHT22;10132;50.864;5.176;2023-05-07T10:15:38;19.00;99.90
19941;DHT22;10132;50.864;5.176;2023-05-07T10:17:40;19.10;99.90
19941;DHT22;10132;50.864;5.176;2023-05-07T10:19:44;19.20;99.90
19941;DHT22;10132;50.864;5.176;2023-05-07T10:21:54;19.10;99.90
19941;DHT22;10132;50.864;5.176;2023-05-07T10:23:59;19.00;99.90
19941;DHT22;10132;50.864;5.176;2023-05-07T10:26:05;18.70;99.90
19941;DHT22;10132;50.864;5.176;2023-05-07T10:28:10;18.70;99.90
19941;DHT22;10132;50.864;5.176;2023-05-07T10:30:21;18.70;99.90
19941;DHT22;10132;50.864;5.176;2023-05-07T10:32:35;18.90;99.90
19941;DHT22;10132;50.864;5.176;2023-05-07T10:34:43;18.70;99.90
19941;DHT22;10132;50.864;5.176;2023-05-07T10:36:46;18.60;99.90
19941;DHT22;10132;50.864;5.176;2023-05-07T10:38:49;18.60;99.90
19941;DHT22;10132;50.864;5.176;2023-05-07T10:40:52;18.50;99.90
19941;DHT22;10132;50.864;5.176;2023-05-07T10:42:57;18.60;99.90
19941;DHT22;10132;50.864;5.176;2023-05-07T10:45:12;18.70;99.90
19941;DHT22;10132;50.864;5.176;2023-05-07T10:47:16;18.60;99.90
19941;DHT22;10132;50.864;5.176;2023-05-07T10:49:19;18.70;99.90
19941;DHT22;10132;50.864;5.176;2023-05-07T10:51:22;18.40;99.90
19941;DHT22;10132;50.864;5.176;2023-05-07T10:53:25;18.30;99.90
19941;DHT22;10132;50.864;5.176;2023-05-07T10:55:29;18.20;99.90
19941;DHT22;10132;50.864;5.176;2023-05-07T10:57:35;18.20;99.90
19941;DHT22;10132;50.864;5.176;2023-05-07T10:59:39;18.10;99.90
19941;DHT22;10132;50.864;5.176;2023-05-07T11:01:52;18.20;99.90
19941;DHT22;10132;50.864;5.176;2023-05-07T11:04:14;18.30;99.90
19941;DHT22;10132;50.864;5.176;2023-05-07T11:06:16;18.40;99.90
19941;DHT22;10132;50.864;5.176;2023-05-07T11:08:18;18.40;99.90
19941;DHT22;10132;50.864;5.176;2023-05-07T11:10:22;18.30;99.90
19941;DHT22;10132;50.864;5.176;2023-05-07T11:12:53;18.40;99.90
19941;DHT22;10132;50.864;5.176;2023-05-07T11:14:57;18.20;99.90
19941;DHT22;10132;50.864;5.176;2023-05-07T11:17:02;18.30;99.90
19941;DHT22;10132;50.864;5.176;2023-05-07T11:19:05;18.40;99.90
19941;DHT22;10132;50.864;5.176;2023-05-07T11:21:07;18.40;99.90
19941;DHT22;10132;50.864;5.176;2023-05-07T11:26:10;18.20;99.90
19941;DHT22;10132;50.864;5.176;2023-05-07T11:28:13;18.00;99.90
19941;DHT22;10132;50.864;5.176;2023-05-07T11:30:18;18.00;99.90
19941;DHT22;10132;50.864;5.176;2023-05-07T11:32:22;18.20;99.90
19941;DHT22;10132;50.864;5.176;2023-05-07T11:34:26;18.30;99.90
19941;DHT22;10132;50.864;5.176;2023-05-07T11:36:32;18.50;99.90
19941;DHT22;10132;50.864;5.176;2023-05-07T11:38:35;18.60;99.90
19941;DHT22;10132;50.864;5.176;2023-05-07T11:40:48;18.30;99.90
19941;DHT22;10132;50.864;5.176;2023-05-07T11:42:51;18.10;99.90
19941;DHT22;10132;50.864;5.176;2023-05-07T11:44:53;18.30;99.90
19941;DHT22;10132;50.864;5.176;2023-05-07T11:46:57;18.30;99.90
19941;DHT22;10132;50.864;5.176;2023-05-07T11:49:00;18.30;99.90
19941;DHT22;10132;50.864;5.176;2023-05-07T11:51:04;18.60;99.90
19941;DHT22;10132;50.864;5.176;2023-05-07T11:53:07;18.70;99.90
19941;DHT22;10132;50.864;5.176;2023-05-07T11:55:10;18.80;99.90
19941;DHT22;10132;50.864;5.176;2023-05-07T11:57:16;18.90;99.90
19941;DHT22;10132;50.864;5.176;2023-05-07T11:59:18;18.90;99.90
19941;DHT22;10132;50.864;5.176;2023-05-07T12:01:21;18.80;99.90
19941;DHT22;10132;50.864;5.176;2023-05-07T12:03:24;18.90;99.90
19941;DHT22;10132;50.864;5.176;2023-05-07T12:05:26;18.90;99.90
19941;DHT22;10132;50.864;5.176;2023-05-07T12:07:30;19.00;99.90
19941;DHT22;10132;50.864;5.176;2023-05-07T12:09:48;19.00;99.90
19941;DHT22;10132;50.864;5.176;2023-05-07T12:12:05;18.80;99.90
19941;DHT22;10132;50.864;5.176;2023-05-07T12:14:07;18.70;99.90
19941;DHT22;10132;50.864;5.176;2023-05-07T12:16:09;18.50;99.90
19941;DHT22;10132;50.864;5.176;2023-05-07T12:18:12;18.40;99.90
19941;DHT22;10132;50.864;5.176;2023-05-07T12:20:18;18.40;99.90
19941;DHT22;10132;50.864;5.176;2023-05-07T12:22:20;18.40;99.90
19941;DHT22;10132;50.864;5.176;2023-05-07T12:24:23;18.50;99.90
19941;DHT22;10132;50.864;5.176;2023-05-07T12:26:25;18.30;99.90
19941;DHT22;10132;50.864;5.176;2023-05-07T12:28:28;18.40;99.90
19941;DHT22;10132;50.864;5.176;2023-05-07T12:30:36;18.60;99.90
19941;DHT22;10132;50.864;5.176;2023-05-07T12:32:38;18.70;99.90
19941;DHT22;10132;50.864;5.176;2023-05-07T12:34:41;18.70;99.90
19941;DHT22;10132;50.864;5.176;2023-05-07T12:36:45;18.50;99.90
19941;DHT22;10132;50.864;5.176;2023-05-07T12:38:50;18.50;99.90
19941;DHT22;10132;50.864;5.176;2023-05-07T12:40:54;18.60;99.90
19941;DHT22;10132;50.864;5.176;2023-05-07T12:42:56;18.60;99.90
19941;DHT22;10132;50.864;5.176;2023-05-07T12:45:07;18.80;99.90
19941;DHT22;10132;50.864;5.176;2023-05-07T12:47:09;19.00;99.90
19941;DHT22;10132;50.864;5.176;2023-05-07T12:49:12;19.30;99.90
19941;DHT22;10132;50.864;5.176;2023-05-07T12:51:15;19.40;99.90
19941;DHT22;10132;50.864;5.176;2023-05-07T12:53:21;19.20;99.90
19941;DHT22;10132;50.864;5.176;2023-05-07T12:55:24;19.20;99.90
19941;DHT22;10132;50.864;5.176;2023-05-07T12:57:26;19.30;99.90
19941;DHT22;10132;50.864;5.176;2023-05-07T12:59:32;19.40;99.90
19941;DHT22;10132;50.864;5.176;2023-05-07T13:01:34;19.50;99.90
19941;DHT22;10132;50.864;5.176;2023-05-07T13:03:37;19.40;99.90